首页
METAR-TAF:

METAR-TAF

机场 :

Fairfield Municipal Airport

費爾菲爾德, 艾奥瓦州, 美国

纬度: 41-03N, 经度: 091-59W, 海拔: 244米

当前天气观测

该预报发布于19分钟前的14:55 UTC
风速4节,风向
温度 19°C
湿度 100%
气压 1013 hPa
能見度: 8.0公里
多云层高于300英尺
轻雾

METAR: KFFL 221455Z AUTO 19004KT 5SM BR BKN003 19/19 A2990 RMK A01 P0005

时间: 10:14 (15:14 UTC)


TAF: 丢失

超过4000个机场的气象观测和天气预报(METAR&TAF报告)。

可查询的气象台以黄色和红色小点在地图上表示。

将鼠标移到小点上方,可查看气象台名称。

然后点击查看天气观测和预报。

如需切换地图:点击带黑十字的绿色按钮放大地图;点击带横线的绿色按钮缩小地图;或者点击绿色箭头查看邻近地区的地图。


METAR-TAF: